Terminal Aerodrome Forecast
Issued by NWS

Home | Current Version | Previous Version | Text Only | Print | Product List | Glossary On
Versions: 1 2 3 4 5 6 7 8 9 10 11 12 13 14 15 16 17 18 19 20 21 22 23 24 25 26 27 28 29 30 31 32 33 34
000
FTUS41 KCTP 210402 AAC
TAFJST
TAF AMD
KJST 210402Z 2104/2124 23006KT P6SM BKN080
     FM210600 23003KT 4SM BR SCT008 BKN035
     FM210800 23004KT 2SM BR OVC007
     FM211200 24005KT 4SM BR BKN025
     FM211400 28007KT P6SM BKN045=

USA.gov is the U.S. government's official web portal to all federal, state and local government web resources and services.